Almo, Kentucky
Current Conditions -  °F | °C
As of 7:55 PM on Saturday 22 Nov 2014 (Local Time) from KCEY Reporting Station
Overcast Overcast  
Wind Chill: 55°   Ceiling: 11000
Heat Index: 55°   Visibility: 10mi
Dew Point: 36°   Wind: 6mph
Humidity: 47%   Direction: 170°S
Pressure: 30.05"   Gusts: NA
Location:  36.69°N, 88.28°W
Report Text: KCEY 230155Z AUTO 17005KT 10SM FEW055 OVC110 13/02 A3005 RMK AO1
Loading
Personal Weather Stations






























Interactive Weather Map New forecast layout! Learn more

10-Day Weather Forecast

Advertisements
Track Severe Weather on mobile